Bucyrus, North Dakota
Current Conditions -  °F | °C
As of 7:53 PM on Friday 28 Nov 2014 (Local Time) from KHEI Reporting Station
Clear Clear  
Wind Chill: 41°   Ceiling: Unl
Heat Index: 41°   Visibility: 10mi
Dew Point: 31°   Wind: 0mph
Humidity: 67%   Direction: NA
Pressure: 29.43"   Gusts: NA
Location:  46.0942°N, 102.462°W
Report Text: KHEI 290253Z AUTO 00000KT 10SM CLR 05/M01 A2943 RMK AO2 SLP984 T00501006 58022
Loading
Personal Weather Stations






























Interactive Weather Map New forecast layout! Learn more

10-Day Weather Forecast

Advertisements
Track Severe Weather on mobile